createdAt,value
2023-04-27T04:15:51.825Z,19.48
2023-04-27T04:17:56.587Z,19.73
2023-04-27T04:19:04.322Z,19.75
2023-04-27T04:20:11.832Z,20.92
2023-04-27T04:21:14.019Z,20.15
2023-04-27T04:22:16.004Z,19.75
2023-04-27T04:23:17.942Z,19.00
2023-04-27T04:24:21.922Z,19.75
2023-04-27T04:25:26.246Z,19.33
2023-04-27T04:26:28.598Z,19.13
2023-04-27T04:27:31.925Z,18.60
2023-04-27T04:28:36.092Z,19.02
2023-04-27T04:29:39.374Z,19.23
2023-04-27T04:30:41.298Z,19.63
2023-04-27T04:31:44.047Z,19.90
2023-04-27T04:32:46.336Z,19.70
2023-04-27T04:33:48.637Z,20.40
2023-04-27T04:34:51.616Z,20.30
2023-04-27T04:35:55.669Z,20.33
2023-04-27T04:36:58.234Z,19.80
2023-04-27T04:38:00.939Z,19.63
2023-04-27T04:39:05.748Z,19.88
2023-04-27T04:40:09.231Z,18.83
2023-04-27T04:41:12.026Z,18.50
2023-04-27T04:42:14.163Z,20.13
2023-04-27T04:43:17.400Z,18.98
2023-04-27T04:44:46.239Z,19.35
2023-04-27T04:45:49.218Z,18.80
2023-04-27T04:46:51.424Z,18.30
2023-04-27T04:47:54.704Z,18.95
2023-04-27T04:48:57.189Z,17.55
2023-04-27T04:49:59.200Z,17.20
2023-04-27T04:51:04.623Z,18.73
2023-04-27T04:52:06.713Z,17.35
2023-04-27T04:53:08.643Z,17.50
2023-04-27T04:54:11.586Z,17.30
2023-04-27T04:55:13.851Z,17.48
2023-04-27T04:56:16.958Z,18.25
2023-04-27T04:57:19.091Z,18.00
2023-04-27T04:58:21.859Z,18.63
2023-04-27T04:59:24.083Z,18.30
2023-04-27T05:00:26.455Z,18.40
2023-04-27T05:01:28.431Z,17.63
2023-04-27T05:02:31.297Z,18.92
2023-04-27T05:03:33.765Z,18.50
2023-04-27T05:04:36.078Z,17.10
2023-04-27T05:05:38.386Z,19.55
2023-04-27T05:06:40.749Z,18.30
2023-04-27T05:07:43.258Z,17.60
2023-04-27T05:08:45.916Z,17.40
2023-04-27T05:09:47.963Z,19.00
2023-04-27T05:10:51.397Z,17.20
2023-04-27T05:11:53.347Z,17.80
2023-04-27T05:12:55.413Z,17.02
2023-04-27T05:13:57.615Z,18.13
2023-04-27T05:14:59.463Z,21.90
2023-04-27T05:16:05.491Z,17.05
2023-04-27T05:17:08.006Z,17.35
2023-04-27T05:18:09.944Z,16.45
2023-04-27T05:19:12.431Z,16.77
2023-04-27T05:20:14.703Z,16.88
2023-04-27T05:21:17.770Z,17.17
2023-04-27T05:22:19.740Z,17.42
2023-04-27T05:23:21.592Z,17.70
2023-04-27T05:24:23.762Z,17.13
2023-04-27T05:25:25.634Z,17.58
2023-04-27T05:26:27.502Z,18.00
2023-04-27T05:27:29.570Z,17.48
2023-04-27T05:28:31.434Z,17.13
2023-04-27T05:29:35.316Z,17.35
2023-04-27T05:30:37.922Z,16.90
2023-04-27T05:31:39.734Z,17.17
2023-04-27T05:32:41.784Z,16.55
2023-04-27T05:33:44.734Z,16.42
2023-04-27T05:34:49.317Z,15.73
2023-04-27T05:35:51.781Z,16.65
2023-04-27T05:36:53.653Z,17.33
2023-04-27T05:37:55.675Z,17.30
2023-04-27T05:38:59.833Z,17.08
2023-04-27T05:40:01.720Z,16.67
2023-04-27T05:41:06.048Z,17.75
2023-04-27T05:42:07.870Z,16.25
2023-04-27T05:43:09.698Z,16.52
2023-04-27T05:44:12.634Z,16.65
2023-04-27T05:45:14.572Z,16.80
2023-04-27T05:46:17.052Z,15.50
2023-04-27T05:47:19.040Z,16.48
2023-04-27T05:48:21.203Z,17.20
2023-04-27T05:49:24.251Z,16.40
2023-04-27T05:50:26.157Z,16.73
2023-04-27T05:51:28.839Z,15.90
2023-04-27T05:52:31.355Z,16.02
2023-04-27T05:53:34.786Z,15.93
2023-04-27T05:54:37.817Z,15.88
2023-04-27T05:55:39.713Z,16.48
2023-04-27T05:56:41.604Z,16.08
2023-04-27T05:57:44.026Z,17.45
2023-04-27T05:58:46.193Z,16.88
2023-04-27T05:59:48.093Z,15.70
2023-04-27T06:00:50.543Z,15.20
2023-04-27T06:01:52.907Z,16.38
2023-04-27T06:02:54.981Z,16.23
2023-04-27T06:04:01.430Z,17.27
2023-04-27T06:05:03.930Z,16.98
2023-04-27T06:06:06.058Z,18.00
2023-04-27T06:07:11.233Z,17.33
2023-04-27T06:08:13.270Z,17.88
2023-04-27T06:09:15.706Z,17.10
2023-04-27T06:10:18.108Z,18.30
2023-04-27T06:11:19.889Z,18.27
2023-04-27T06:12:21.955Z,17.70
2023-04-27T06:13:23.812Z,17.45
2023-04-27T06:14:26.074Z,16.13
2023-04-27T06:15:27.872Z,14.25
2023-04-27T06:16:29.860Z,12.48
2023-04-27T06:17:34.398Z,12.73
2023-04-27T06:18:36.455Z,12.05
2023-04-27T06:19:53.072Z,11.88
2023-04-27T06:21:00.747Z,14.20
2023-04-27T06:22:04.184Z,9.70
2023-04-27T06:28:24.606Z,9.15
2023-04-27T06:29:57.844Z,7.60
2023-04-27T06:32:50.602Z,9.07
2023-04-27T06:39:31.130Z,11.23
2023-04-27T06:43:44.078Z,10.85
2023-04-27T06:44:45.928Z,12.00
2023-04-27T06:45:47.965Z,13.55
2023-04-27T06:46:50.461Z,12.77
2023-04-27T06:47:52.640Z,12.20
2023-04-27T06:48:55.906Z,8.73
2023-04-27T06:49:58.083Z,7.90
2023-04-27T06:51:03.063Z,7.85
2023-04-27T06:52:14.558Z,7.72
2023-04-27T06:53:18.477Z,8.13
2023-04-27T06:54:22.923Z,8.40
2023-04-27T06:55:25.343Z,8.20
2023-04-27T06:56:27.485Z,9.90
2023-04-27T06:58:46.761Z,7.88
2023-04-27T06:59:51.126Z,8.43
2023-04-27T07:00:53.568Z,8.02
2023-04-27T07:01:55.647Z,7.93
2023-04-27T07:02:57.716Z,7.85
2023-04-27T07:04:04.295Z,7.72
2023-04-27T07:05:13.566Z,7.47
2023-04-27T07:06:18.820Z,7.90
2023-04-27T07:07:21.658Z,8.00
2023-04-27T07:08:29.685Z,7.72
2023-04-27T07:09:58.755Z,7.82
2023-04-27T07:11:03.461Z,7.40
2023-04-27T07:12:10.500Z,7.50
2023-04-27T07:13:19.697Z,7.38
2023-04-27T07:18:14.625Z,5.57
2023-04-27T07:22:00.183Z,5.50
2023-04-27T07:25:10.647Z,4.85
2023-04-27T07:26:30.625Z,4.88
2023-04-27T07:27:35.943Z,5.28
2023-04-27T07:28:39.664Z,5.40
2023-04-27T07:29:42.774Z,5.47
2023-04-27T07:32:01.068Z,5.35
2023-04-27T07:33:03.667Z,4.75
2023-04-27T07:34:11.535Z,5.38
2023-04-27T07:35:18.036Z,5.20
2023-04-27T07:36:20.593Z,5.28
2023-04-27T07:37:26.719Z,5.38
2023-04-27T07:38:32.234Z,5.40
2023-04-27T07:39:38.875Z,5.47
2023-04-27T07:40:43.181Z,5.47
2023-04-27T07:41:50.697Z,6.07
2023-04-27T07:44:12.707Z,5.10
2023-04-27T07:45:39.052Z,6.28
2023-04-27T07:46:44.814Z,6.00
2023-04-27T07:47:50.860Z,5.63
2023-04-27T07:48:55.294Z,5.95
2023-04-27T07:49:57.971Z,5.95
2023-04-27T07:51:00.530Z,5.82
2023-04-27T07:52:05.821Z,6.28
2023-04-27T07:53:12.209Z,5.78
2023-04-27T07:55:06.965Z,5.80
2023-04-27T07:56:10.259Z,5.65
2023-04-27T07:57:16.075Z,5.40
2023-04-27T07:58:22.456Z,5.35
2023-04-27T07:59:54.027Z,6.13
2023-04-27T08:04:51.048Z,5.45
2023-04-27T08:08:22.988Z,5.80
2023-04-27T08:10:42.666Z,6.00
2023-04-27T08:11:58.829Z,5.95
2023-04-27T08:13:03.296Z,6.22
2023-04-27T08:14:07.846Z,6.20
2023-04-27T08:15:16.814Z,6.40
2023-04-27T08:16:20.381Z,6.53
2023-04-27T08:17:26.255Z,6.38
2023-04-27T08:18:35.416Z,6.85
2023-04-27T08:20:06.959Z,6.85
2023-04-27T08:21:10.180Z,7.00
2023-04-27T08:22:14.035Z,7.30
2023-04-27T08:23:16.508Z,7.15
2023-04-27T08:24:21.281Z,7.38
2023-04-27T08:25:29.133Z,7.50
2023-04-27T08:26:31.887Z,7.28
2023-04-27T08:27:34.861Z,7.10
2023-04-27T08:28:50.659Z,7.25
2023-04-27T08:29:55.589Z,8.20
2023-04-27T08:31:00.727Z,7.07
2023-04-27T08:32:05.230Z,7.32
2023-04-27T08:33:10.129Z,7.10
2023-04-27T08:34:13.941Z,7.53
2023-04-27T08:35:20.681Z,7.03
2023-04-27T08:36:29.098Z,7.05
2023-04-27T08:37:32.484Z,6.60
2023-04-27T08:38:40.678Z,11.23
2023-04-27T08:39:47.748Z,8.18
2023-04-27T08:40:54.980Z,7.88
2023-04-27T08:42:07.993Z,8.23
2023-04-27T08:43:13.701Z,7.47
2023-04-27T08:44:16.402Z,8.50
2023-04-27T08:45:23.288Z,8.10
2023-04-27T08:46:28.618Z,8.23
2023-04-27T08:48:52.001Z,8.02
2023-04-27T08:49:58.602Z,8.75
2023-04-27T08:52:27.922Z,9.55
2023-04-27T08:57:16.668Z,7.13
2023-04-27T08:59:40.650Z,8.13
2023-04-27T09:00:46.262Z,7.70
2023-04-27T09:02:15.261Z,7.63
2023-04-27T09:03:26.568Z,7.90
2023-04-27T09:04:40.622Z,8.43
2023-04-27T09:10:49.138Z,9.75
2023-04-27T09:14:27.116Z,11.35
2023-04-27T09:15:57.651Z,11.18
2023-04-27T09:18:35.698Z,11.60
2023-04-27T09:19:39.285Z,11.55
2023-04-27T09:22:47.726Z,11.32
2023-04-27T09:28:33.088Z,11.43
2023-04-27T09:41:11.526Z,8.68
2023-04-27T09:43:37.379Z,8.50
2023-04-27T09:44:41.808Z,7.82
2023-04-27T09:45:44.696Z,8.07
2023-04-27T09:46:50.977Z,8.45
2023-04-27T09:48:07.039Z,9.07
2023-04-27T09:49:31.865Z,7.78
2023-04-27T09:51:59.051Z,7.85
2023-04-27T09:54:18.405Z,7.70
2023-04-27T09:57:08.739Z,7.90
2023-04-27T09:58:40.161Z,7.05
2023-04-27T10:03:30.586Z,7.45
2023-04-27T10:05:13.514Z,7.10
2023-04-27T10:07:43.016Z,6.82
2023-04-27T10:08:46.055Z,7.47
2023-04-27T10:11:20.857Z,6.93
2023-04-27T10:12:34.068Z,6.80
2023-04-27T10:13:38.297Z,7.10
2023-04-27T10:15:15.839Z,7.75
2023-04-27T10:18:56.644Z,7.47
2023-04-27T10:21:38.179Z,8.05
2023-04-27T10:22:55.760Z,8.75
2023-04-27T10:24:10.884Z,10.48
2023-04-27T10:25:20.502Z,8.88
2023-04-27T10:26:27.829Z,8.68
2023-04-27T10:27:39.816Z,8.10
2023-04-27T10:30:22.816Z,8.70
2023-04-27T10:31:32.309Z,9.00
2023-04-27T10:32:38.083Z,8.63
2023-04-27T10:33:46.594Z,8.70
2023-04-27T10:35:07.156Z,8.15
2023-04-27T10:36:20.339Z,9.48
2023-04-27T10:41:07.813Z,8.32
2023-04-27T10:42:14.684Z,8.18
2023-04-27T10:43:25.903Z,7.93
2023-04-27T10:44:31.737Z,7.68
2023-04-27T10:45:37.900Z,7.93
2023-04-27T10:46:52.782Z,8.05
2023-04-27T10:48:01.360Z,9.65
2023-04-27T10:49:05.991Z,7.82
2023-04-27T10:50:14.658Z,7.60
2023-04-27T10:54:06.945Z,7.53
2023-04-27T10:55:22.879Z,7.00
2023-04-27T10:56:25.398Z,6.80
2023-04-27T10:57:27.731Z,8.60
2023-04-27T10:58:45.334Z,7.50
2023-04-27T10:59:56.665Z,8.38
2023-04-27T11:00:59.790Z,7.22
2023-04-27T11:02:03.428Z,7.50
2023-04-27T11:03:19.912Z,6.57
2023-04-27T11:04:22.463Z,7.07
2023-04-27T11:05:33.651Z,8.18
2023-04-27T11:06:43.077Z,7.57
2023-04-27T11:07:47.364Z,8.07
2023-04-27T11:08:50.102Z,6.13
2023-04-27T11:09:53.700Z,6.40
2023-04-27T11:10:57.769Z,5.97
2023-04-27T11:11:59.932Z,5.78
2023-04-27T11:13:10.478Z,5.50
2023-04-27T11:14:20.474Z,5.32
2023-04-27T11:16:24.781Z,4.82
2023-04-27T11:17:31.100Z,4.72
2023-04-27T11:18:33.873Z,4.43
2023-04-27T11:19:47.368Z,4.43
2023-04-27T11:20:52.633Z,4.90
2023-04-27T11:22:08.868Z,5.25
2023-04-27T11:23:15.060Z,5.40
2023-04-27T11:24:17.460Z,5.13
2023-04-27T11:25:30.620Z,5.10
2023-04-27T11:26:33.498Z,4.70
2023-04-27T11:27:43.300Z,4.72
2023-04-27T11:28:59.912Z,5.10
2023-04-27T11:30:27.530Z,5.28
2023-04-27T11:31:40.759Z,4.57
2023-04-27T11:32:43.145Z,5.43
2023-04-27T11:33:52.131Z,5.35
2023-04-27T11:35:20.332Z,5.90
2023-04-27T11:36:26.691Z,5.80
2023-04-27T11:37:32.019Z,5.30
2023-04-27T11:38:37.450Z,5.03
2023-04-27T11:39:43.967Z,4.85
2023-04-27T11:41:05.562Z,6.53
2023-04-27T11:42:25.211Z,6.53
2023-04-27T11:43:28.626Z,5.35
2023-04-27T11:44:31.148Z,4.82
2023-04-27T11:45:34.828Z,5.00
2023-04-27T11:46:40.764Z,4.93
2023-04-27T11:47:48.252Z,4.97
2023-04-27T11:48:52.742Z,5.40
2023-04-27T11:49:57.264Z,4.97
2023-04-27T11:51:00.676Z,5.40
2023-04-27T11:52:02.932Z,7.65
2023-04-27T11:53:04.910Z,7.25
2023-04-27T11:54:07.885Z,6.03
2023-04-27T11:55:16.404Z,6.00
2023-04-27T11:56:20.983Z,5.38
2023-04-27T11:57:29.546Z,5.80
2023-04-27T11:58:39.116Z,6.45
2023-04-27T11:59:42.045Z,5.75
2023-04-27T12:01:10.837Z,6.90
2023-04-27T12:02:17.561Z,6.53
2023-04-27T12:03:23.018Z,6.53
2023-04-27T12:04:26.704Z,7.18
2023-04-27T12:05:30.524Z,7.10
2023-04-27T12:06:34.099Z,7.35
2023-04-27T12:07:38.187Z,7.57
2023-04-27T12:08:40.600Z,7.32
2023-04-27T12:09:43.572Z,7.28
2023-04-27T12:10:46.974Z,7.50
2023-04-27T12:11:51.198Z,7.05
2023-04-27T12:12:53.546Z,6.50
2023-04-27T12:15:18.731Z,6.68
2023-04-27T12:16:23.289Z,7.03
2023-04-27T12:17:26.793Z,8.52
2023-04-27T12:18:28.891Z,6.18
2023-04-27T12:19:31.525Z,6.53
2023-04-27T12:20:38.692Z,6.40
2023-04-27T12:21:46.201Z,5.95
2023-04-27T12:22:48.620Z,6.05
2023-04-27T12:23:50.830Z,6.18
2023-04-27T12:24:52.942Z,6.00
2023-04-27T12:25:55.022Z,6.10
2023-04-27T12:26:57.664Z,5.70
2023-04-27T12:29:20.618Z,5.93
2023-04-27T12:30:27.390Z,5.82
2023-04-27T12:31:29.406Z,6.80
2023-04-27T12:32:31.914Z,6.00
2023-04-27T12:33:37.038Z,6.40
2023-04-27T12:34:42.517Z,6.30
2023-04-27T12:35:48.458Z,6.40
2023-04-27T12:37:00.910Z,6.47
2023-04-27T12:39:26.821Z,7.57
2023-04-27T12:40:31.680Z,6.53
2023-04-27T12:41:33.728Z,6.32
2023-04-27T12:42:39.036Z,6.65
2023-04-27T12:43:41.336Z,6.43
2023-04-27T12:44:43.530Z,6.60
2023-04-27T12:45:45.975Z,6.70
2023-04-27T12:46:50.224Z,7.35
2023-04-27T12:49:12.827Z,6.72
2023-04-27T12:50:16.098Z,6.97
2023-04-27T12:51:18.725Z,7.35
2023-04-27T12:52:21.029Z,6.65
2023-04-27T12:53:25.091Z,5.90
2023-04-27T12:54:28.224Z,5.57
2023-04-27T12:55:34.489Z,5.75
2023-04-27T12:56:36.999Z,5.80
2023-04-27T12:57:39.081Z,5.70
2023-04-27T12:58:44.161Z,5.43
2023-04-27T12:59:47.317Z,5.50
2023-04-27T13:00:50.619Z,5.15
2023-04-27T13:01:53.234Z,5.32
2023-04-27T13:02:56.861Z,4.78
2023-04-27T13:04:01.513Z,5.40
2023-04-27T13:05:04.861Z,8.13
2023-04-27T13:06:08.408Z,6.60
2023-04-27T13:07:10.660Z,5.70
2023-04-27T13:08:12.761Z,5.75
2023-04-27T13:09:15.115Z,6.30
2023-04-27T13:10:20.919Z,6.13
2023-04-27T13:11:24.320Z,5.63
2023-04-27T13:12:26.394Z,6.20
2023-04-27T13:13:28.505Z,6.90
2023-04-27T13:14:32.333Z,11.38
2023-04-27T13:15:35.304Z,7.03
2023-04-27T13:16:38.763Z,6.90
2023-04-27T13:17:43.501Z,6.97
2023-04-27T13:18:49.512Z,6.60
2023-04-27T13:19:51.582Z,5.97
2023-04-27T13:20:54.934Z,5.95
2023-04-27T13:21:57.124Z,6.10
2023-04-27T13:22:59.347Z,6.80
2023-04-27T13:24:04.250Z,6.70
2023-04-27T13:25:07.940Z,7.25
2023-04-27T13:26:11.451Z,6.20
2023-04-27T13:27:14.206Z,5.97
2023-04-27T13:28:16.579Z,6.60
2023-04-27T13:29:18.887Z,6.60
2023-04-27T13:30:21.141Z,5.97
2023-04-27T13:31:23.420Z,6.30
2023-04-27T13:32:25.739Z,5.93
2023-04-27T13:33:27.929Z,6.10
2023-04-27T13:34:30.455Z,6.05
2023-04-27T13:35:33.913Z,6.65
2023-04-27T13:36:35.855Z,6.57
2023-04-27T13:37:40.925Z,8.00
2023-04-27T13:38:43.018Z,5.97
2023-04-27T13:39:45.038Z,6.47
2023-04-27T13:40:48.137Z,6.13
2023-04-27T13:41:50.400Z,5.88
2023-04-27T13:42:53.155Z,5.57
2023-04-27T13:43:55.165Z,6.63
2023-04-27T13:44:57.355Z,6.03
2023-04-27T13:46:05.023Z,7.18
2023-04-27T13:47:08.326Z,6.72
2023-04-27T13:48:10.998Z,7.47
2023-04-27T13:49:13.077Z,6.82
2023-04-27T13:50:15.686Z,6.57
2023-04-27T13:51:20.089Z,5.90
2023-04-27T13:52:22.211Z,6.22
2023-04-27T13:53:27.497Z,6.22
2023-04-27T13:54:29.650Z,6.03
2023-04-27T13:55:37.309Z,5.88
2023-04-27T13:56:39.372Z,6.45
2023-04-27T13:57:41.745Z,6.03
2023-04-27T13:58:43.821Z,6.88
2023-04-27T13:59:45.921Z,6.93
2023-04-27T14:00:49.228Z,6.65
2023-04-27T14:01:51.420Z,6.70
2023-04-27T14:02:53.777Z,6.55
2023-04-27T14:03:56.434Z,6.60
2023-04-27T14:04:58.933Z,6.13
2023-04-27T14:06:02.518Z,7.68
2023-04-27T14:07:05.171Z,6.15
2023-04-27T14:08:07.403Z,6.80
2023-04-27T14:09:09.701Z,6.85
2023-04-27T14:10:11.667Z,6.75
2023-04-27T14:11:19.112Z,6.95
2023-04-27T14:12:21.106Z,7.30
2023-04-27T14:13:23.141Z,12.65
2023-04-27T14:14:25.307Z,6.80
2023-04-27T14:15:29.012Z,7.15
2023-04-27T14:16:31.408Z,6.72
2023-04-27T14:17:33.416Z,6.60
2023-04-27T14:18:36.523Z,6.85
2023-04-27T14:19:38.554Z,7.20
2023-04-27T14:20:42.247Z,7.05
2023-04-27T14:21:44.369Z,6.60
2023-04-27T14:22:46.841Z,6.57
2023-04-27T14:23:48.781Z,9.95
2023-04-27T14:24:50.739Z,6.93
2023-04-27T14:25:57.609Z,7.20
2023-04-27T14:27:00.433Z,7.28
2023-04-27T14:28:06.022Z,6.53
2023-04-27T14:29:12.537Z,43.70
2023-04-27T14:30:17.044Z,6.75
2023-04-27T14:31:22.240Z,6.22
2023-04-27T14:32:25.297Z,6.20
2023-04-27T14:33:27.593Z,6.43
2023-04-27T14:34:30.055Z,6.35
2023-04-27T14:35:34.907Z,6.72
2023-04-27T14:36:37.229Z,25.75
2023-04-27T14:37:41.044Z,8.25
2023-04-27T14:38:44.880Z,6.75
2023-04-27T14:39:47.040Z,7.53
2023-04-27T14:40:49.238Z,6.82
2023-04-27T14:41:51.147Z,7.90
2023-04-27T14:42:53.100Z,7.93
2023-04-27T14:43:55.451Z,7.60
2023-04-27T14:44:57.347Z,7.70
2023-04-27T14:46:19.203Z,8.00
2023-04-27T14:47:22.808Z,7.43
2023-04-27T14:48:25.038Z,8.35
2023-04-27T14:49:27.044Z,10.88
2023-04-27T14:50:28.994Z,38.88
2023-04-27T14:51:32.697Z,17.67
2023-04-27T14:52:34.791Z,10.68
2023-04-27T14:53:37.026Z,9.60
2023-04-27T14:54:39.572Z,8.27
2023-04-27T14:55:45.928Z,6.75
2023-04-27T14:56:48.100Z,8.55
2023-04-27T14:57:50.299Z,6.72
2023-04-27T14:58:52.467Z,6.18
2023-04-27T14:59:54.591Z,6.88
2023-04-27T15:01:02.343Z,6.65
2023-04-27T15:02:04.944Z,7.38
2023-04-27T15:03:07.322Z,6.78
2023-04-27T15:04:12.911Z,6.03
2023-04-27T15:05:14.999Z,9.82
2023-04-27T15:06:18.083Z,6.78
2023-04-27T15:07:21.630Z,7.03
2023-04-27T15:08:23.597Z,6.30
2023-04-27T15:09:25.596Z,6.43
2023-04-27T15:10:27.604Z,6.20
2023-04-27T15:11:30.971Z,6.57
2023-04-27T15:12:32.999Z,6.28
2023-04-27T15:13:35.689Z,6.20
2023-04-27T15:14:37.474Z,6.28
2023-04-27T15:15:40.730Z,5.97
2023-04-27T15:16:42.624Z,6.20
2023-04-27T15:17:44.419Z,7.32
2023-04-27T15:18:46.270Z,6.70
2023-04-27T15:19:48.253Z,6.55
2023-04-27T15:20:52.662Z,6.53
2023-04-27T15:21:54.491Z,6.28
2023-04-27T15:22:56.396Z,6.13
2023-04-27T15:23:58.385Z,7.65
2023-04-27T15:25:00.434Z,6.32
2023-04-27T15:26:02.864Z,6.63
2023-04-27T15:27:04.780Z,6.63
2023-04-27T15:28:06.619Z,6.97
2023-04-27T15:29:08.519Z,6.97
2023-04-27T15:30:10.798Z,7.03
2023-04-27T15:31:13.026Z,6.55
2023-04-27T15:32:16.296Z,7.47
2023-04-27T15:33:18.834Z,6.90
2023-04-27T15:34:21.189Z,6.47
2023-04-27T15:35:23.092Z,7.90
2023-04-27T15:36:28.417Z,6.65
2023-04-27T15:37:30.542Z,7.82
2023-04-27T15:38:32.362Z,8.38
2023-04-27T15:39:34.193Z,8.25
2023-04-27T15:40:36.183Z,7.72
2023-04-27T15:41:38.222Z,8.48
2023-04-27T15:42:40.069Z,9.05
2023-04-27T15:43:42.109Z,7.75
2023-04-27T15:44:44.021Z,8.02
2023-04-27T15:45:46.185Z,8.77
2023-04-27T15:46:48.174Z,7.60
2023-04-27T15:47:50.225Z,7.53
2023-04-27T15:48:52.334Z,7.28
2023-04-27T15:49:57.974Z,7.93
2023-04-27T15:51:01.121Z,7.93
2023-04-27T15:52:03.714Z,8.00
2023-04-27T15:53:05.580Z,7.18
2023-04-27T15:54:07.468Z,7.10
2023-04-27T15:55:09.922Z,7.13
2023-04-27T15:56:12.095Z,7.03
2023-04-27T15:57:14.028Z,7.82
2023-04-27T15:58:16.810Z,8.13
2023-04-27T15:59:19.402Z,7.32
2023-04-27T16:00:22.334Z,8.48
2023-04-27T16:01:26.037Z,8.10
2023-04-27T16:02:28.156Z,8.18
2023-04-27T16:03:30.258Z,7.50
2023-04-27T16:04:32.415Z,8.80
2023-04-27T16:05:34.197Z,17.33
2023-04-27T16:06:37.368Z,32.95
2023-04-27T16:07:39.955Z,12.75
2023-04-27T16:08:42.027Z,10.60
2023-04-27T16:09:43.900Z,11.95
2023-04-27T16:10:48.011Z,8.65
2023-04-27T16:11:49.904Z,9.50
2023-04-27T16:12:51.769Z,10.00
2023-04-27T16:13:53.554Z,9.95
2023-04-27T16:14:59.088Z,9.38
2023-04-27T16:16:01.305Z,10.27
2023-04-27T16:17:03.381Z,12.60
2023-04-27T16:18:05.620Z,19.40
2023-04-27T16:19:08.791Z,36.90
2023-04-27T16:20:10.771Z,28.45
2023-04-27T16:21:12.822Z,13.43
2023-04-27T16:22:14.741Z,10.93
2023-04-27T16:23:17.133Z,12.10
2023-04-27T16:24:19.609Z,13.73
2023-04-27T16:25:21.527Z,36.58
2023-04-27T16:26:26.551Z,18.17
2023-04-27T16:27:29.956Z,12.57
2023-04-27T16:28:32.859Z,47.25
2023-04-27T16:29:35.368Z,30.50
2023-04-27T16:30:38.249Z,17.60
2023-04-27T16:31:42.776Z,26.52
2023-04-27T16:32:45.038Z,14.25
2023-04-27T16:33:48.293Z,12.32
2023-04-27T16:34:50.206Z,13.63
2023-04-27T16:35:52.492Z,12.57
2023-04-27T16:36:55.045Z,15.35
2023-04-27T16:37:56.913Z,13.20
2023-04-27T16:38:58.836Z,13.38
2023-04-27T16:40:04.892Z,13.43
2023-04-27T16:41:07.935Z,12.50
2023-04-27T16:42:10.198Z,12.30
2023-04-27T16:43:12.007Z,12.48
2023-04-27T16:44:14.370Z,10.55
2023-04-27T16:45:16.346Z,11.68
2023-04-27T16:46:18.651Z,10.77
2023-04-27T16:47:20.853Z,10.20
2023-04-27T16:48:22.759Z,10.95
2023-04-27T16:49:24.547Z,11.05
2023-04-27T16:50:27.351Z,11.23
2023-04-27T16:51:31.096Z,11.13
2023-04-27T16:52:33.002Z,11.57
2023-04-27T16:53:34.848Z,11.30
2023-04-27T16:54:37.105Z,10.35
2023-04-27T16:55:39.127Z,10.60
2023-04-27T16:56:41.357Z,10.52
2023-04-27T16:57:43.112Z,9.93
2023-04-27T16:58:44.983Z,9.50
2023-04-27T16:59:47.206Z,9.65
2023-04-27T17:00:49.088Z,9.07
2023-04-27T17:01:51.522Z,8.50
2023-04-27T17:02:53.870Z,8.82
2023-04-27T17:03:57.772Z,8.27
2023-04-27T17:05:04.095Z,9.52
2023-04-27T17:06:18.913Z,10.02
2023-04-27T17:07:34.771Z,9.68
2023-04-27T17:08:36.961Z,8.85
2023-04-27T17:09:39.390Z,8.07
2023-04-27T17:10:41.737Z,8.20
2023-04-27T17:11:46.294Z,8.70
2023-04-27T17:12:48.785Z,8.02
2023-04-27T17:13:51.701Z,9.05
2023-04-27T17:14:53.691Z,8.43
2023-04-27T17:15:55.736Z,8.02
2023-04-27T17:16:58.063Z,7.97
2023-04-27T17:18:04.875Z,7.90
2023-04-27T17:19:06.757Z,9.07
2023-04-27T17:20:09.661Z,13.88
2023-04-27T17:21:12.972Z,9.65
2023-04-27T17:22:14.973Z,9.77
2023-04-27T17:23:16.841Z,7.97
2023-04-27T17:24:19.348Z,8.20
2023-04-27T17:25:21.802Z,8.40
2023-04-27T17:26:27.319Z,7.63
2023-04-27T17:27:29.252Z,8.25
2023-04-27T17:28:31.578Z,8.00
2023-04-27T17:29:33.590Z,8.27
2023-04-27T17:30:35.740Z,8.35
2023-04-27T17:31:38.837Z,7.50
2023-04-27T17:32:41.283Z,8.00
2023-04-27T17:33:43.749Z,9.43
2023-04-27T17:34:46.538Z,8.57
2023-04-27T17:35:48.390Z,8.68
2023-04-27T17:36:50.455Z,7.90
2023-04-27T17:37:53.307Z,8.20
2023-04-27T17:38:55.248Z,8.30
2023-04-27T17:39:57.240Z,8.75
2023-04-27T17:40:59.154Z,8.65
2023-04-27T17:42:01.540Z,8.77
2023-04-27T17:43:03.609Z,8.40
2023-04-27T17:44:05.760Z,8.20
2023-04-27T17:45:08.487Z,8.25
2023-04-27T17:46:11.168Z,8.70
2023-04-27T17:47:13.892Z,8.38
2023-04-27T17:48:16.462Z,8.60
2023-04-27T17:49:19.187Z,8.73
2023-04-27T17:50:21.053Z,8.73
2023-04-27T17:51:23.443Z,9.85
2023-04-27T17:52:25.447Z,10.25
2023-04-27T17:53:27.430Z,10.55
2023-04-27T17:54:30.183Z,10.10
2023-04-27T17:55:32.441Z,10.80
2023-04-27T17:56:35.777Z,10.50
2023-04-27T17:57:37.653Z,10.23
2023-04-27T17:58:39.644Z,10.48
2023-04-27T17:59:41.550Z,16.58
2023-04-27T18:00:43.831Z,10.93
2023-04-27T18:01:47.107Z,10.60
2023-04-27T18:02:49.914Z,10.73
2023-04-27T18:03:52.350Z,10.13
2023-04-27T18:04:54.443Z,10.65
2023-04-27T18:05:56.533Z,11.85
2023-04-27T18:06:58.698Z,11.73
2023-04-27T18:08:01.408Z,12.40
2023-04-27T18:09:03.920Z,12.02
2023-04-27T18:10:07.642Z,11.88
2023-04-27T18:11:09.768Z,11.90
2023-04-27T18:12:12.517Z,12.40
2023-04-27T18:13:14.669Z,11.80
2023-04-27T18:14:16.837Z,10.90
2023-04-27T18:15:19.796Z,9.80
2023-04-27T18:16:22.058Z,11.45
2023-04-27T18:17:25.243Z,11.45
2023-04-27T18:18:28.288Z,11.05
2023-04-27T18:19:32.284Z,11.80
2023-04-27T18:20:34.897Z,11.13
2023-04-27T18:21:38.150Z,11.85
2023-04-27T18:22:41.942Z,10.68
2023-04-27T18:23:44.791Z,11.05
2023-04-27T18:24:47.842Z,11.80
2023-04-27T18:25:50.474Z,10.20
2023-04-27T18:26:52.632Z,11.02
2023-04-27T18:27:56.441Z,11.65
2023-04-27T18:28:59.825Z,21.27
2023-04-27T18:30:02.080Z,23.63
2023-04-27T18:31:21.202Z,17.65
2023-04-27T18:32:23.269Z,12.90
2023-04-27T18:33:27.049Z,18.27
2023-04-27T18:34:33.953Z,15.27
2023-04-27T18:35:38.021Z,15.07
2023-04-27T18:36:53.038Z,12.88
2023-04-27T18:38:02.164Z,12.82
2023-04-27T18:39:10.215Z,12.90
2023-04-27T18:40:28.821Z,12.05
2023-04-27T18:41:42.014Z,12.02
2023-04-27T18:42:47.364Z,12.48
2023-04-27T18:43:49.664Z,11.95
2023-04-27T18:44:55.027Z,15.23
2023-04-27T18:45:57.173Z,18.08
2023-04-27T18:47:00.911Z,20.10
2023-04-27T18:48:03.225Z,13.80
2023-04-27T18:49:07.455Z,14.20
2023-04-27T18:50:11.052Z,14.68
2023-04-27T18:51:14.625Z,12.73
2023-04-27T18:52:22.231Z,11.30
2023-04-27T18:53:25.137Z,11.90
2023-04-27T18:56:24.813Z,11.90
2023-04-27T18:57:26.920Z,10.38
2023-04-27T18:58:31.228Z,11.50
2023-04-27T18:59:33.973Z,12.18
2023-04-27T19:00:40.341Z,10.65
2023-04-27T19:01:43.881Z,11.57
2023-04-27T19:02:48.011Z,11.27
2023-04-27T19:04:00.920Z,11.10
2023-04-27T19:05:12.827Z,11.60
2023-04-27T19:06:20.980Z,11.85
2023-04-27T19:07:28.846Z,11.02
2023-04-27T19:08:31.760Z,11.75
2023-04-27T19:09:35.093Z,11.40
2023-04-27T19:10:37.564Z,11.82
2023-04-27T19:11:41.292Z,11.30
2023-04-27T19:12:44.844Z,11.88
2023-04-27T19:13:47.716Z,13.15
2023-04-27T19:14:52.364Z,12.82
2023-04-27T19:15:55.331Z,12.82
2023-04-27T19:17:07.925Z,12.73
2023-04-27T19:18:11.661Z,13.43
2023-04-27T19:19:14.481Z,13.52
2023-04-27T19:20:16.775Z,14.40
2023-04-27T19:21:18.793Z,13.77
2023-04-27T19:22:21.252Z,14.23
2023-04-27T19:23:23.343Z,14.35
2023-04-27T19:24:26.374Z,14.43
2023-04-27T19:25:28.501Z,15.00
2023-04-27T19:26:31.416Z,14.98
2023-04-27T19:27:45.079Z,15.98
2023-04-27T19:28:48.283Z,14.75
2023-04-27T19:31:46.688Z,16.15
2023-04-27T19:32:48.661Z,16.00
2023-04-27T19:33:55.193Z,15.85
2023-04-27T19:36:59.030Z,16.00
2023-04-27T19:38:13.271Z,16.55
2023-04-27T19:39:20.286Z,15.82
2023-04-27T19:40:22.637Z,16.38
2023-04-27T19:41:25.370Z,16.48
2023-04-27T19:43:50.516Z,16.90
2023-04-27T19:45:04.181Z,16.83
2023-04-27T19:46:24.914Z,16.40
2023-04-27T20:08:32.176Z,17.55
2023-04-27T20:09:39.142Z,16.40
2023-04-27T20:10:43.285Z,16.75
2023-04-27T20:11:49.458Z,16.88
2023-04-27T20:13:00.455Z,17.83
2023-04-27T20:17:10.916Z,17.77
2023-04-27T20:18:14.433Z,18.00
2023-04-27T20:19:21.397Z,17.58
2023-04-27T20:20:25.704Z,17.67
2023-04-27T20:21:29.676Z,17.38
2023-04-27T20:25:17.715Z,18.42
2023-04-27T20:26:23.973Z,19.20
2023-04-27T20:27:29.652Z,18.00
2023-04-27T20:28:32.656Z,18.23
2023-04-27T20:29:35.383Z,18.42
2023-04-27T20:30:41.877Z,17.65
2023-04-27T20:31:49.954Z,17.27
2023-04-27T20:32:52.845Z,18.67
2023-04-27T20:34:00.157Z,17.67
2023-04-27T20:35:04.930Z,18.83
2023-04-27T20:36:17.288Z,17.88
2023-04-27T20:37:22.365Z,17.35
2023-04-27T20:40:21.036Z,17.63
2023-04-27T20:47:47.453Z,17.55
2023-04-27T20:50:12.227Z,17.38
2023-04-27T20:51:18.049Z,18.45
2023-04-27T20:52:33.102Z,17.55